This is the latest recevied weather packets stored in our database for station/object W3BRL. If no packets are shown the sender has not sent any weather packets the latest 10 day(s).
| Time | Temp. | Humidity | Pressure | Rain* | Wind** | Luminosity | Snow |
|---|---|---|---|---|---|---|---|
| 1777649765 | 13.33° C | 49% | 1009.6 hPa | 0 mm | - | 389 W/m² | - |
| 1777649462 | 12.78° C | 51% | 1010 hPa | 0 mm | - | 496 W/m² | - |
| 1777649158 | 12.22° C | 50% | 1010 hPa | 0 mm | - | 776 W/m² | - |
| 1777648855 | 12.22° C | 52% | 1010.3 hPa | 0 mm | - | 467 W/m² | - |
| 1777648552 | 12.22° C | 51% | 1010.2 hPa | 0 mm | - | 385 W/m² | - |
| 1777648249 | 12.22° C | 50% | 1010.2 hPa | 0 mm | - | 430 W/m² | - |
| 1777647950 | 12.22° C | 50% | 1010.2 hPa | 0 mm | - | 682 W/m² | - |
| 1777647647 | 12.22° C | 51% | 1010.1 hPa | 0 mm | - | 883 W/m² | - |
| 1777647343 | 11.67° C | 58% | 1010.3 hPa | 0 mm | - | 950 W/m² | - |
| 1777647041 | 11.11° C | 59% | 1010.5 hPa | 0 mm | - | 315 W/m² | - |
| 1777646737 | 11.11° C | 58% | 1010.2 hPa | 0 mm | - | 357 W/m² | - |
| 1777646129 | 11.11° C | 60% | 1010.2 hPa | 0 mm | - | 329 W/m² | - |
| 1777645826 | 11.11° C | 58% | 1010.3 hPa | 0 mm | - | 328 W/m² | - |
| 1777645524 | 11.67° C | 60% | 1010.2 hPa | 0 mm | - | 329 W/m² | - |
| 1777645219 | 11.67° C | 58% | 1010.2 hPa | 0 mm | - | 402 W/m² | - |
| 1777644915 | 11.11° C | 62% | 1010.3 hPa | 0 mm | - | 760 W/m² | - |
| 1777644614 | 10.56° C | 67% | 1010.3 hPa | 0 mm | - | 657 W/m² | - |
| 1777644309 | 10.56° C | 68% | 1010.3 hPa | 0 mm | - | 330 W/m² | - |
| 1777643096 | 8.89° C | 77% | 1010.5 hPa | 0 mm | - | 309 W/m² | - |
| 1777642793 | 8.33° C | 78% | 1010.3 hPa | 0 mm | - | 297 W/m² | - |
| 1777642489 | 8.33° C | 79% | 1010.6 hPa | 0 mm | - | 275 W/m² | - |
| 1777642186 | 7.78° C | 81% | 1010.7 hPa | 0 mm | - | 264 W/m² | - |
| 1777641883 | 7.78° C | 82% | 1010.9 hPa | 0 mm | - | 246 W/m² | - |
| 1777641584 | 7.78° C | 84% | 1010.6 hPa | 0 mm | - | 244 W/m² | - |
| 1777641283 | 7.22° C | 86% | 1010.8 hPa | 0 mm | - | 242 W/m² | - |
* Rain latest hour (hover to see other rain measurements)
** Current wind speed in m/s (hover to see current wind gust speed)